createdAt,value
2023-04-22T00:00:55.914Z,9.25
2023-04-22T00:05:59.796Z,9.16
2023-04-22T00:11:03.704Z,9.17
2023-04-22T00:16:09.537Z,9.12
2023-04-22T00:21:13.382Z,9.03
2023-04-22T00:26:17.113Z,8.97
2023-04-22T00:31:22.370Z,8.89
2023-04-22T00:36:26.280Z,8.86
2023-04-22T00:41:31.078Z,8.81
2023-04-22T00:46:37.992Z,8.73
2023-04-22T00:51:41.761Z,8.64
2023-04-22T00:56:46.720Z,8.59
2023-04-22T01:01:52.389Z,8.58
2023-04-22T01:06:56.165Z,8.55
2023-04-22T01:11:59.887Z,8.54
2023-04-22T01:17:05.184Z,8.53
2023-04-22T01:22:09.384Z,8.54
2023-04-22T01:27:14.580Z,8.53
2023-04-22T01:32:18.539Z,8.45
2023-04-22T01:37:22.760Z,8.44
2023-04-22T01:42:28.130Z,8.42
2023-04-22T01:47:31.890Z,8.35
2023-04-22T01:52:36.635Z,8.32
2023-04-22T01:57:42.005Z,8.27
2023-04-22T02:02:45.877Z,8.17
2023-04-22T02:07:53.124Z,8.21
2023-04-22T02:12:58.624Z,8.22
2023-04-22T02:18:02.570Z,8.09
2023-04-22T02:23:06.558Z,8.19
2023-04-22T02:28:11.644Z,8.16
2023-04-22T02:33:15.496Z,8.20
2023-04-22T02:38:19.854Z,8.23
2023-04-22T02:43:25.083Z,8.22
2023-04-22T02:48:28.792Z,8.16
2023-04-22T02:53:32.621Z,8.17
2023-04-22T02:58:37.773Z,8.19
2023-04-22T03:03:41.875Z,8.22
2023-04-22T03:08:46.246Z,8.21
2023-04-22T03:13:51.305Z,8.20
2023-04-22T03:18:55.101Z,8.18
2023-04-22T03:23:58.900Z,8.11
2023-04-22T03:29:05.259Z,8.08
2023-04-22T03:34:09.381Z,8.08
2023-04-22T03:39:13.576Z,8.06
2023-04-22T03:44:19.443Z,8.07
2023-04-22T03:49:24.137Z,8.01
2023-04-22T03:54:28.038Z,8.04
2023-04-22T03:59:33.698Z,7.99
2023-04-22T04:04:38.241Z,8.03
2023-04-22T04:09:43.671Z,8.06
2023-04-22T04:14:49.276Z,8.08
2023-04-22T04:19:54.406Z,8.08
2023-04-22T04:24:58.483Z,8.10
2023-04-22T04:30:04.720Z,8.13
2023-04-22T04:35:12.958Z,8.13
2023-04-22T04:40:17.598Z,8.08
2023-04-22T04:45:24.400Z,8.09
2023-04-22T04:50:28.840Z,8.09
2023-04-22T04:55:33.318Z,8.08
2023-04-22T05:00:39.337Z,8.10
2023-04-22T05:05:43.777Z,8.14
2023-04-22T05:10:47.693Z,8.19
2023-04-22T05:15:55.055Z,8.28
2023-04-22T05:20:59.802Z,8.31
2023-04-22T05:26:03.581Z,8.33
2023-04-22T05:31:09.042Z,8.36
2023-04-22T05:36:13.510Z,8.43
2023-04-22T05:41:18.178Z,8.45
2023-04-22T05:46:24.729Z,8.52
2023-04-22T05:51:28.652Z,8.56
2023-04-22T05:56:32.888Z,8.67
2023-04-22T06:01:38.851Z,8.78
2023-04-22T06:06:43.205Z,8.89
2023-04-22T06:11:50.132Z,8.95
2023-04-22T06:16:55.195Z,9.04
2023-04-22T06:21:59.109Z,9.16
2023-04-22T06:27:03.409Z,9.27
2023-04-22T06:32:08.494Z,9.43
2023-04-22T06:37:12.263Z,9.46
2023-04-22T06:42:16.142Z,9.51
2023-04-22T06:47:24.593Z,9.62
2023-04-22T06:52:28.792Z,9.76
2023-04-22T06:57:33.454Z,9.99
2023-04-22T07:02:38.631Z,10.09
2023-04-22T07:07:42.523Z,10.25
2023-04-22T07:12:48.287Z,10.38
2023-04-22T07:17:53.571Z,10.47
2023-04-22T07:22:57.445Z,10.58
2023-04-22T07:28:01.163Z,10.68
2023-04-22T07:33:06.265Z,10.77
2023-04-22T07:38:11.156Z,10.82
2023-04-22T07:43:16.562Z,11.00
2023-04-22T07:48:21.688Z,11.28
2023-04-22T07:53:25.546Z,11.54
2023-04-22T07:58:29.314Z,11.73
2023-04-22T08:03:34.548Z,11.98
2023-04-22T08:08:38.368Z,12.28
2023-04-22T08:13:42.099Z,12.51
2023-04-22T08:18:47.177Z,12.77
2023-04-22T08:23:50.879Z,12.88
2023-04-22T08:28:54.703Z,12.93
2023-04-22T08:33:59.809Z,13.14
2023-04-22T08:39:03.538Z,13.41
2023-04-22T08:44:09.296Z,13.62
2023-04-22T08:49:15.898Z,13.92
2023-04-22T08:54:19.807Z,14.16
2023-04-22T08:59:24.528Z,14.51
2023-04-22T09:04:30.410Z,14.75
2023-04-22T09:09:35.167Z,14.84
2023-04-22T09:14:40.646Z,15.02
2023-04-22T09:19:46.190Z,15.15
2023-04-22T09:24:51.869Z,15.39
2023-04-22T09:29:55.746Z,15.74
2023-04-22T09:35:02.310Z,16.02
2023-04-22T09:40:08.743Z,16.36
2023-04-22T09:45:12.705Z,17.02
2023-04-22T09:50:21.308Z,16.86
2023-04-22T09:55:26.364Z,16.54
2023-04-22T10:00:31.679Z,16.18
2023-04-22T10:05:37.695Z,16.49
2023-04-22T10:10:42.045Z,17.09
2023-04-22T10:15:51.588Z,17.88
2023-04-22T10:20:58.936Z,17.83
2023-04-22T10:26:02.797Z,18.26
2023-04-22T10:31:08.123Z,17.94
2023-04-22T10:36:21.222Z,17.65
2023-04-22T10:41:26.067Z,17.50
2023-04-22T10:47:01.389Z,16.81
2023-04-22T10:52:09.363Z,16.65
2023-04-22T10:57:14.577Z,16.47
2023-04-22T11:02:19.182Z,16.01
2023-04-22T11:07:35.654Z,15.96
2023-04-22T11:12:45.864Z,15.59
2023-04-22T11:17:52.741Z,15.31
2023-04-22T11:23:01.389Z,15.32
2023-04-22T11:28:05.230Z,15.30
2023-04-22T11:33:09.574Z,15.17
2023-04-22T11:38:15.389Z,15.00
2023-04-22T11:43:19.642Z,14.88
2023-04-22T11:48:25.822Z,14.69
2023-04-22T11:53:31.108Z,14.66
2023-04-22T11:58:34.884Z,14.71
2023-04-22T12:03:38.946Z,14.78
2023-04-22T12:08:46.640Z,14.72
2023-04-22T12:13:51.160Z,14.80
2023-04-22T12:18:56.209Z,14.49
2023-04-22T12:24:04.941Z,14.68
2023-04-22T12:29:09.123Z,14.80
2023-04-22T12:34:13.062Z,14.73
2023-04-22T12:39:18.966Z,14.20
2023-04-22T12:44:25.066Z,14.18
2023-04-22T12:49:29.201Z,14.36
2023-04-22T12:54:34.813Z,14.09
2023-04-22T12:59:38.982Z,14.07
2023-04-22T13:04:43.296Z,14.06
2023-04-22T13:09:48.594Z,14.07
2023-04-22T13:14:52.415Z,14.00
2023-04-22T13:19:56.553Z,14.17
2023-04-22T13:25:01.780Z,14.32
2023-04-22T13:30:08.099Z,14.19
2023-04-22T13:35:11.902Z,14.25
2023-04-22T13:40:17.327Z,14.47
2023-04-22T13:45:21.355Z,14.45
2023-04-22T13:50:25.550Z,14.53
2023-04-22T13:55:31.455Z,14.73
2023-04-22T14:00:36.098Z,14.70
2023-04-22T14:05:40.222Z,14.89
2023-04-22T14:10:45.382Z,14.99
2023-04-22T14:15:50.521Z,14.81
2023-04-22T14:20:54.619Z,14.35
2023-04-22T14:26:00.254Z,14.41
2023-04-22T14:31:04.337Z,14.49
2023-04-22T14:36:08.650Z,14.44
2023-04-22T14:41:14.412Z,14.34
2023-04-22T14:46:18.251Z,14.28
2023-04-22T14:51:22.225Z,14.22
2023-04-22T14:56:27.692Z,13.92
2023-04-22T15:01:32.408Z,13.99
2023-04-22T15:06:36.380Z,13.99
2023-04-22T15:11:41.653Z,13.85
2023-04-22T15:16:45.555Z,13.81
2023-04-22T15:21:49.384Z,13.86
2023-04-22T15:26:55.322Z,13.78
2023-04-22T15:31:59.197Z,13.49
2023-04-22T15:37:02.993Z,13.46
2023-04-22T15:42:08.087Z,13.29
2023-04-22T15:47:12.150Z,13.01
2023-04-22T15:52:17.588Z,13.03
2023-04-22T15:57:22.797Z,12.92
2023-04-22T16:02:26.798Z,12.77
2023-04-22T16:07:30.749Z,12.67
2023-04-22T16:12:35.984Z,12.52
2023-04-22T16:17:39.950Z,12.40
2023-04-22T16:22:43.758Z,12.41
2023-04-22T16:27:48.977Z,12.46
2023-04-22T16:32:52.999Z,12.46
2023-04-22T16:37:56.865Z,12.38
2023-04-22T16:43:05.158Z,12.26
2023-04-22T16:48:08.917Z,12.26
2023-04-22T16:53:12.924Z,12.52
2023-04-22T16:58:17.976Z,12.39
2023-04-22T17:03:22.444Z,12.55
2023-04-22T17:08:26.593Z,12.54
2023-04-22T17:13:31.730Z,12.11
2023-04-22T17:18:35.737Z,12.21
2023-04-22T17:23:39.625Z,11.89
2023-04-22T17:28:44.907Z,12.02
2023-04-22T17:33:48.833Z,11.93
2023-04-22T17:38:52.653Z,11.88
2023-04-22T17:43:59.145Z,11.66
2023-04-22T17:49:03.256Z,11.61
2023-04-22T17:54:07.520Z,11.44
2023-04-22T17:59:12.742Z,11.56
2023-04-22T18:04:16.562Z,11.40
2023-04-22T18:09:20.395Z,11.47
2023-04-22T18:14:26.697Z,11.20
2023-04-22T18:19:30.700Z,10.90
2023-04-22T18:24:34.626Z,10.91
2023-04-22T18:29:39.885Z,11.03
2023-04-22T18:34:43.862Z,11.02
2023-04-22T18:39:47.799Z,10.81
2023-04-22T18:44:52.926Z,10.79
2023-04-22T18:49:57.417Z,10.78
2023-04-22T18:55:01.216Z,10.61
2023-04-22T19:00:08.285Z,10.67
2023-04-22T19:05:13.593Z,10.60
2023-04-22T19:10:17.477Z,10.51
2023-04-22T19:15:22.567Z,10.50
2023-04-22T19:20:26.773Z,10.42
2023-04-22T19:25:30.658Z,10.40
2023-04-22T19:30:36.049Z,10.33
2023-04-22T19:35:39.998Z,10.27
2023-04-22T19:40:43.792Z,10.24
2023-04-22T19:45:48.809Z,10.18
2023-04-22T19:50:52.709Z,10.13
2023-04-22T19:55:56.663Z,10.10
2023-04-22T20:01:02.265Z,10.01
2023-04-22T20:06:07.138Z,10.00
2023-04-22T20:11:12.554Z,10.00
2023-04-22T20:16:19.576Z,10.00
2023-04-22T20:21:24.106Z,9.95
2023-04-22T20:26:28.344Z,9.95
2023-04-22T20:31:34.521Z,9.91
2023-04-22T20:36:39.809Z,9.92
2023-04-22T20:41:44.515Z,9.86
2023-04-22T20:46:49.985Z,9.80
2023-04-22T20:51:54.227Z,9.83
2023-04-22T20:56:59.010Z,9.74
2023-04-22T21:02:06.743Z,9.78
2023-04-22T21:07:14.334Z,9.72
2023-04-22T21:12:19.544Z,9.62
2023-04-22T21:17:29.098Z,9.61
2023-04-22T21:22:33.270Z,9.65
2023-04-22T21:27:37.954Z,9.49
2023-04-22T21:32:43.047Z,9.50
2023-04-22T21:37:47.002Z,9.47
2023-04-22T21:42:50.987Z,9.51
2023-04-22T21:47:56.060Z,9.39
2023-04-22T21:53:00.594Z,9.48
2023-04-22T21:58:04.395Z,9.56
2023-04-22T22:03:09.793Z,9.54
2023-04-22T22:08:14.413Z,9.57
2023-04-22T22:13:18.094Z,9.56
2023-04-22T22:18:23.135Z,9.56
2023-04-22T22:23:26.914Z,9.50
2023-04-22T22:28:30.672Z,9.45
2023-04-22T22:33:35.734Z,9.39
2023-04-22T22:38:39.492Z,9.41
2023-04-22T22:43:43.213Z,9.38
2023-04-22T22:48:48.787Z,9.36
2023-04-22T22:53:52.522Z,9.30
2023-04-22T22:58:56.338Z,9.25
2023-04-22T23:04:01.639Z,9.28
2023-04-22T23:09:05.889Z,9.19
2023-04-22T23:14:09.754Z,9.26
2023-04-22T23:19:15.807Z,9.22
2023-04-22T23:24:20.417Z,9.19
2023-04-22T23:29:25.141Z,9.15
2023-04-22T23:34:33.637Z,9.09
2023-04-22T23:39:37.378Z,9.04
2023-04-22T23:44:41.495Z,9.04
2023-04-22T23:49:46.719Z,9.04
2023-04-22T23:54:52.041Z,8.96
2023-04-22T23:59:56.230Z,9.02
